createdAt,value
2018-09-26T00:00:20.558Z,102371.22
2018-09-26T00:02:55.808Z,102370.34
2018-09-26T00:05:26.094Z,102367.27
2018-09-26T00:07:55.815Z,102362.92
2018-09-26T00:10:25.414Z,102362.86
2018-09-26T00:12:55.189Z,102363.88
2018-09-26T00:15:24.934Z,102362.20
2018-09-26T00:17:54.782Z,102362.55
2018-09-26T00:20:24.509Z,102359.98
2018-09-26T00:22:54.239Z,102350.28
2018-09-26T00:25:23.886Z,102341.34
2018-09-26T00:27:54.978Z,102340.12
2018-09-26T00:30:24.827Z,102334.39
2018-09-26T00:32:54.557Z,102320.83
2018-09-26T00:35:24.297Z,102323.02
2018-09-26T00:37:54.279Z,102317.71
2018-09-26T00:40:23.989Z,102313.98
2018-09-26T00:42:55.000Z,102315.74
2018-09-26T00:45:24.593Z,102306.65
2018-09-26T00:47:54.266Z,102311.61
2018-09-26T00:50:24.514Z,102314.05
2018-09-26T00:52:55.093Z,102312.08
2018-09-26T00:55:24.819Z,102309.15
2018-09-26T00:57:54.579Z,102307.11
2018-09-26T01:00:24.322Z,102309.09
2018-09-26T01:02:53.976Z,102305.72
2018-09-26T01:05:23.738Z,102298.60
2018-09-26T01:07:53.871Z,102301.44
2018-09-26T01:10:24.086Z,102300.61
2018-09-26T01:12:54.318Z,102300.23
2018-09-26T01:15:23.927Z,102298.52
2018-09-26T01:17:54.770Z,102291.80
2018-09-26T01:20:24.396Z,102275.11
2018-09-26T01:22:54.343Z,102273.41
2018-09-26T01:25:24.012Z,102283.19
2018-09-26T01:27:54.033Z,102278.04
2018-09-26T01:30:23.788Z,102270.78
2018-09-26T01:32:53.901Z,102266.02
2018-09-26T01:35:24.095Z,102250.95
2018-09-26T01:37:54.495Z,102247.13
2018-09-26T01:40:24.596Z,102246.02
2018-09-26T01:42:54.835Z,102237.10
2018-09-26T01:45:24.782Z,102234.05
2018-09-26T01:47:55.201Z,102250.97
2018-09-26T01:50:25.636Z,102249.77
2018-09-26T01:52:56.345Z,102251.25
2018-09-26T01:55:25.987Z,102256.28
2018-09-26T01:57:56.178Z,102257.76
2018-09-26T02:00:25.984Z,102254.77
2018-09-26T02:02:56.367Z,102251.41
2018-09-26T02:05:26.655Z,102250.08
2018-09-26T02:07:56.750Z,102245.64
2018-09-26T02:10:26.385Z,102248.14
2018-09-26T02:12:56.244Z,102240.68
2018-09-26T02:15:25.896Z,102242.63
2018-09-26T02:17:56.161Z,102242.14
2018-09-26T02:20:25.768Z,102244.63
2018-09-26T02:22:55.621Z,102244.20
2018-09-26T02:25:25.272Z,102243.31
2018-09-26T02:27:54.859Z,102242.97
2018-09-26T02:30:24.496Z,102251.69
2018-09-26T02:32:54.117Z,102244.30
2018-09-26T02:35:23.713Z,102243.55
2018-09-26T02:37:53.495Z,102238.99
2018-09-26T02:40:24.276Z,102246.63
2018-09-26T02:42:54.504Z,102234.62
2018-09-26T02:45:24.845Z,102226.95
2018-09-26T02:47:54.491Z,102217.83
2018-09-26T02:50:24.142Z,102210.44
2018-09-26T02:52:54.426Z,102201.02
2018-09-26T02:55:24.284Z,102200.42
2018-09-26T02:57:53.941Z,102216.84
2018-09-26T03:00:23.578Z,102216.99
2018-09-26T03:02:53.289Z,102217.17
2018-09-26T03:05:22.923Z,102227.07
2018-09-26T03:07:52.594Z,102215.78
2018-09-26T03:10:22.962Z,102211.54
2018-09-26T03:12:52.580Z,102219.12
2018-09-26T03:15:22.239Z,102211.33
2018-09-26T03:17:51.852Z,102213.63
2018-09-26T03:20:21.599Z,102234.00
2018-09-26T03:22:51.478Z,102237.61
2018-09-26T03:25:21.098Z,102231.75
2018-09-26T03:27:50.834Z,102221.43
2018-09-26T03:30:20.477Z,102210.06
2018-09-26T03:32:50.135Z,102213.91
2018-09-26T03:35:19.761Z,102219.15
2018-09-26T03:37:49.500Z,102217.66
2018-09-26T03:40:19.753Z,102204.05
2018-09-26T03:42:49.496Z,102200.50
2018-09-26T03:45:19.918Z,102198.59
2018-09-26T03:47:49.615Z,102205.72
2018-09-26T03:50:19.461Z,102203.48
2018-09-26T03:52:50.513Z,102194.80
2018-09-26T03:55:20.519Z,102190.94
2018-09-26T03:57:50.108Z,102189.55
2018-09-26T04:00:20.920Z,102180.36
2018-09-26T04:02:50.618Z,102175.70
2018-09-26T04:05:20.289Z,102169.28
2018-09-26T04:07:50.720Z,102159.88
2018-09-26T04:10:20.590Z,102171.27
2018-09-26T04:12:56.252Z,102164.55
2018-09-26T04:15:25.828Z,102166.06
2018-09-26T04:17:55.424Z,102172.06
2018-09-26T04:20:25.232Z,102173.14
2018-09-26T04:22:54.809Z,102166.49
2018-09-26T04:25:25.185Z,102173.47
2018-09-26T04:27:54.945Z,102168.04
2018-09-26T04:30:24.627Z,102165.89
2018-09-26T04:32:54.511Z,102150.05
2018-09-26T04:35:24.927Z,102139.82
2018-09-26T04:37:54.617Z,102143.73
2018-09-26T04:40:24.238Z,102142.38
2018-09-26T04:42:53.873Z,102146.44
2018-09-26T04:45:24.531Z,102143.77
2018-09-26T04:47:54.649Z,102137.11
2018-09-26T04:50:24.279Z,102137.63
2018-09-26T04:52:54.026Z,102126.16
2018-09-26T04:55:23.736Z,102138.00
2018-09-26T04:57:53.483Z,102139.30
2018-09-26T05:00:23.897Z,102142.63
2018-09-26T05:02:53.528Z,102148.19
2018-09-26T05:05:23.227Z,102154.36
2018-09-26T05:07:52.982Z,102157.22
2018-09-26T05:10:22.734Z,102153.20
2018-09-26T05:12:52.606Z,102168.11
2018-09-26T05:15:22.301Z,102173.08
2018-09-26T05:17:51.956Z,102165.42
2018-09-26T05:20:21.651Z,102170.50
2018-09-26T05:22:52.619Z,102166.47
2018-09-26T05:25:22.249Z,102171.83
2018-09-26T05:27:51.958Z,102166.13
2018-09-26T05:30:21.644Z,102163.82
2018-09-26T05:32:51.256Z,102164.25
2018-09-26T05:35:20.899Z,102165.36
2018-09-26T05:37:50.920Z,102163.70
2018-09-26T05:40:20.601Z,102171.73
2018-09-26T05:42:50.224Z,102172.28
2018-09-26T05:45:20.615Z,102159.72
2018-09-26T05:47:50.319Z,102160.16
2018-09-26T05:50:20.012Z,102157.22
2018-09-26T05:52:49.611Z,102159.77
2018-09-26T05:55:19.429Z,102157.52
2018-09-26T05:57:49.772Z,102160.05
2018-09-26T06:00:20.685Z,102163.30
2018-09-26T06:02:50.319Z,102151.98
2018-09-26T06:05:20.087Z,102143.81
2018-09-26T06:07:50.277Z,102143.14
2018-09-26T06:10:19.920Z,102144.63
2018-09-26T06:12:49.765Z,102137.06
2018-09-26T06:15:19.513Z,102141.53
2018-09-26T06:17:49.827Z,102130.98
2018-09-26T06:20:19.408Z,102121.34
2018-09-26T06:22:49.058Z,102114.75
2018-09-26T06:25:18.861Z,102110.25
2018-09-26T06:27:48.490Z,102117.42
2018-09-26T06:30:18.425Z,102112.50
2018-09-26T06:32:48.261Z,102109.72
2018-09-26T06:35:18.203Z,102107.67
2018-09-26T06:37:47.861Z,102102.43
2018-09-26T06:40:18.862Z,102096.46
2018-09-26T06:42:48.460Z,102104.31
2018-09-26T06:45:18.506Z,102100.43
2018-09-26T06:47:48.362Z,102093.85
2018-09-26T06:50:18.089Z,102109.10
2018-09-26T06:52:47.767Z,102103.64
2018-09-26T06:55:17.666Z,102091.58
2018-09-26T06:57:47.477Z,102081.12
2018-09-26T07:00:17.126Z,102089.91
2018-09-26T07:02:47.371Z,102083.27
2018-09-26T07:05:17.106Z,102086.77
2018-09-26T07:07:46.727Z,102085.92
2018-09-26T07:10:17.073Z,102080.12
2018-09-26T07:12:46.697Z,102084.74
2018-09-26T07:15:16.453Z,102088.94
2018-09-26T07:17:46.150Z,102098.08
2018-09-26T07:20:15.846Z,102111.55
2018-09-26T07:22:45.650Z,102102.08
2018-09-26T07:25:15.428Z,102104.08
2018-09-26T07:27:45.019Z,102104.23
2018-09-26T07:30:14.926Z,102111.37
2018-09-26T07:32:44.708Z,102101.06
2018-09-26T07:35:14.388Z,102108.22
2018-09-26T07:37:44.691Z,102109.40
2018-09-26T07:40:14.951Z,102108.89
2018-09-26T07:42:45.083Z,102117.87
2018-09-26T07:45:14.857Z,102112.98
2018-09-26T07:47:45.212Z,102115.39
2018-09-26T07:50:15.117Z,102123.05
2018-09-26T07:52:44.801Z,102131.00
2018-09-26T07:55:15.114Z,102122.00
2018-09-26T07:57:45.433Z,102128.18
2018-09-26T08:00:15.131Z,102126.19
2018-09-26T08:02:45.860Z,102128.48
2018-09-26T08:05:15.529Z,102125.16
2018-09-26T08:07:45.336Z,102127.83
2018-09-26T08:10:15.758Z,102130.70
2018-09-26T08:12:45.560Z,102134.22
2018-09-26T08:15:15.767Z,102126.79
2018-09-26T08:17:45.407Z,102135.67
2018-09-26T08:20:15.244Z,102135.13
2018-09-26T08:22:45.066Z,102140.44
2018-09-26T08:25:15.078Z,102138.92
2018-09-26T08:27:44.708Z,102137.47
2018-09-26T08:30:14.713Z,102134.41
2018-09-26T08:32:44.304Z,102134.11
2018-09-26T08:35:14.217Z,102136.25
2018-09-26T08:37:44.105Z,102137.32
2018-09-26T08:40:13.944Z,102132.14
2018-09-26T08:42:43.618Z,102135.91
2018-09-26T08:45:13.355Z,102132.53
2018-09-26T08:47:43.085Z,102133.10
2018-09-26T08:50:12.713Z,102136.84
2018-09-26T08:52:42.450Z,102143.62
2018-09-26T08:55:12.105Z,102136.07
2018-09-26T08:57:42.022Z,102134.87
2018-09-26T09:00:12.459Z,102138.50
2018-09-26T09:02:42.256Z,102139.34
2018-09-26T09:05:11.976Z,102137.52
2018-09-26T09:07:41.641Z,102130.05
2018-09-26T09:10:18.191Z,102127.97
2018-09-26T09:12:47.862Z,102128.58
2018-09-26T09:15:17.604Z,102123.52
2018-09-26T09:17:47.773Z,102117.89
2018-09-26T09:20:17.985Z,102109.55
2018-09-26T09:22:48.066Z,102110.22
2018-09-26T09:25:18.374Z,102117.03
2018-09-26T09:27:48.336Z,102116.30
2018-09-26T09:30:18.590Z,102120.30
2018-09-26T09:32:48.488Z,102114.44
2018-09-26T09:35:18.660Z,102117.57
2018-09-26T09:37:48.842Z,102117.09
2018-09-26T09:40:19.297Z,102117.02
2018-09-26T09:42:49.153Z,102120.60
2018-09-26T09:45:19.500Z,102111.61
2018-09-26T09:47:49.267Z,102117.09
2018-09-26T09:50:19.434Z,102110.70
2018-09-26T09:52:49.227Z,102103.10
2018-09-26T09:55:19.100Z,102100.77
2018-09-26T09:57:48.840Z,102103.59
2018-09-26T10:00:19.295Z,102101.75
2018-09-26T10:02:49.313Z,102093.66
2018-09-26T10:05:19.523Z,102100.67
2018-09-26T10:07:49.240Z,102099.01
2018-09-26T10:10:19.901Z,102092.83
2018-09-26T10:12:50.259Z,102102.58
2018-09-26T10:15:20.646Z,102097.89
2018-09-26T10:17:50.385Z,102098.48
2018-09-26T10:20:20.648Z,102094.74
2018-09-26T10:22:50.370Z,102094.49
2018-09-26T10:25:20.156Z,102085.98
2018-09-26T10:27:49.810Z,102089.88
2018-09-26T10:30:19.446Z,102088.36
2018-09-26T10:32:49.158Z,102086.43
2018-09-26T10:35:19.435Z,102090.95
2018-09-26T10:37:49.179Z,102080.44
2018-09-26T10:40:19.206Z,102079.75
2018-09-26T10:42:48.940Z,102073.91
2018-09-26T10:45:18.608Z,102068.16
2018-09-26T10:47:54.868Z,102064.14
2018-09-26T10:50:24.701Z,102061.62
2018-09-26T10:52:54.321Z,102061.95
2018-09-26T10:55:25.429Z,102058.87
2018-09-26T10:57:55.149Z,102056.27
2018-09-26T11:00:25.736Z,102054.48
2018-09-26T11:02:56.092Z,102051.42
2018-09-26T11:05:25.706Z,102049.84
2018-09-26T11:07:55.783Z,102050.14
2018-09-26T11:10:25.493Z,102051.88
2018-09-26T11:12:55.823Z,102041.61
2018-09-26T11:15:26.056Z,102045.52
2018-09-26T11:17:55.777Z,102040.64
2018-09-26T11:20:25.544Z,102035.44
2018-09-26T11:22:58.003Z,102039.61
2018-09-26T11:25:27.868Z,102033.58
2018-09-26T11:27:58.183Z,102030.20
2018-09-26T11:30:28.103Z,102028.09
2018-09-26T11:32:58.500Z,102011.80
2018-09-26T11:35:28.140Z,102008.69
2018-09-26T11:37:57.779Z,102002.28
2018-09-26T11:40:28.003Z,101997.25
2018-09-26T11:42:58.322Z,101997.09
2018-09-26T11:45:28.957Z,101996.30
2018-09-26T11:47:58.791Z,101998.65
2018-09-26T11:50:28.656Z,101997.75
2018-09-26T11:52:58.650Z,101999.25
2018-09-26T11:55:29.049Z,101986.42
2018-09-26T11:57:58.844Z,101987.41
2018-09-26T12:00:28.448Z,101983.23
2018-09-26T12:02:58.082Z,101980.14
2018-09-26T12:05:27.832Z,101980.44
2018-09-26T12:07:57.501Z,101969.71
2018-09-26T12:10:27.318Z,101957.57
2018-09-26T12:12:57.513Z,101973.26
2018-09-26T12:15:27.182Z,101969.54
2018-09-26T12:17:57.881Z,101975.31
2018-09-26T12:20:27.598Z,101965.91
2018-09-26T12:22:57.192Z,101957.55
2018-09-26T12:25:26.899Z,101958.67
2018-09-26T12:27:56.533Z,101951.02
2018-09-26T12:30:26.154Z,101953.61
2018-09-26T12:32:55.692Z,101941.84
2018-09-26T12:35:26.099Z,101940.41
2018-09-26T12:37:55.697Z,101933.80
2018-09-26T12:40:25.419Z,101936.94
2018-09-26T12:42:56.082Z,101929.67
2018-09-26T12:45:26.152Z,101936.02
2018-09-26T12:47:55.972Z,101929.28
2018-09-26T12:50:26.050Z,101925.57
2018-09-26T12:52:55.776Z,101920.39
2018-09-26T12:55:26.946Z,101919.27
2018-09-26T12:57:57.342Z,101924.72
2018-09-26T13:00:27.317Z,101937.45
2018-09-26T13:02:57.667Z,101922.98
2018-09-26T13:05:27.657Z,101935.38
2018-09-26T13:07:57.412Z,101929.58
2018-09-26T13:10:27.119Z,101924.20
2018-09-26T13:12:56.675Z,101906.34
2018-09-26T13:15:26.429Z,101895.45
2018-09-26T13:17:56.709Z,101900.22
2018-09-26T13:20:26.446Z,101902.99
2018-09-26T13:22:56.269Z,101901.27
2018-09-26T13:25:26.481Z,101891.91
2018-09-26T13:27:56.036Z,101879.16
2018-09-26T13:30:26.200Z,101877.02
2018-09-26T13:32:55.897Z,101882.13
2018-09-26T13:35:25.640Z,101869.09
2018-09-26T13:37:55.370Z,101863.83
2018-09-26T13:40:25.890Z,101863.20
2018-09-26T13:42:55.870Z,101861.06
2018-09-26T13:45:26.338Z,101861.44
2018-09-26T13:47:56.153Z,101860.58
2018-09-26T13:50:26.811Z,101871.73
2018-09-26T13:52:56.297Z,101881.67
2018-09-26T13:55:25.946Z,101878.88
2018-09-26T13:57:55.602Z,101874.94
2018-09-26T14:00:26.008Z,101870.36
2018-09-26T14:02:55.965Z,101863.45
2018-09-26T14:05:25.779Z,101862.92
2018-09-26T14:07:56.725Z,101862.10
2018-09-26T14:10:27.164Z,101856.22
2018-09-26T14:12:56.938Z,101848.97
2018-09-26T14:15:26.536Z,101845.98
2018-09-26T14:17:56.609Z,101851.28
2018-09-26T14:20:26.263Z,101839.14
2018-09-26T14:22:56.514Z,101838.52
2018-09-26T14:25:26.310Z,101835.89
2018-09-26T14:27:56.416Z,101839.03
2018-09-26T14:30:26.151Z,101838.10
2018-09-26T14:32:56.003Z,101833.10
2018-09-26T14:35:25.826Z,101831.16
2018-09-26T14:37:55.751Z,101825.30
2018-09-26T14:40:25.519Z,101826.30
2018-09-26T14:42:55.475Z,101824.61
2018-09-26T14:45:25.314Z,101815.95
2018-09-26T14:47:55.163Z,101810.16
2018-09-26T14:50:25.027Z,101806.24
2018-09-26T14:52:54.668Z,101812.30
2018-09-26T14:55:25.146Z,101812.50
2018-09-26T14:57:54.943Z,101815.75
2018-09-26T15:00:25.183Z,101800.39
2018-09-26T15:02:55.324Z,101802.41
2018-09-26T15:05:24.942Z,101800.96
2018-09-26T15:07:54.575Z,101805.54
2018-09-26T15:10:24.294Z,101799.76
2018-09-26T15:12:54.552Z,101794.55
2018-09-26T15:15:24.428Z,101794.55
2018-09-26T15:17:54.042Z,101797.23
2018-09-26T15:20:23.827Z,101801.28
2018-09-26T15:22:53.395Z,101802.41
2018-09-26T15:25:23.059Z,101796.31
2018-09-26T15:27:53.247Z,101788.93
2018-09-26T15:30:23.582Z,101796.66
2018-09-26T15:32:53.322Z,101786.78
2018-09-26T15:35:23.058Z,101784.21
2018-09-26T15:37:52.638Z,101782.81
2018-09-26T15:40:22.522Z,101786.84
2018-09-26T15:42:52.624Z,101776.37
2018-09-26T15:45:22.859Z,101772.65
2018-09-26T15:47:53.031Z,101773.45
2018-09-26T15:50:22.786Z,101779.30
2018-09-26T15:52:52.503Z,101781.64
2018-09-26T15:55:22.237Z,101772.92
2018-09-26T15:57:52.186Z,101765.16
2018-09-26T16:00:22.047Z,101768.38
2018-09-26T16:02:52.347Z,101766.86
2018-09-26T16:05:22.052Z,101761.12
2018-09-26T16:07:51.924Z,101764.77
2018-09-26T16:10:22.783Z,101761.88
2018-09-26T16:12:52.594Z,101758.56
2018-09-26T16:15:22.345Z,101749.67
2018-09-26T16:17:52.056Z,101753.94
2018-09-26T16:20:21.858Z,101755.00
2018-09-26T16:22:52.758Z,101743.58
2018-09-26T16:25:22.594Z,101750.19
2018-09-26T16:27:53.773Z,101753.66
2018-09-26T16:30:24.215Z,101747.61
2018-09-26T16:32:53.948Z,101752.70
2018-09-26T16:35:23.721Z,101753.30
2018-09-26T16:37:53.700Z,101757.66
2018-09-26T16:40:23.467Z,101753.45
2018-09-26T16:42:53.214Z,101755.44
2018-09-26T16:45:23.753Z,101755.14
2018-09-26T16:47:53.347Z,101752.05
2018-09-26T16:50:23.714Z,101752.20
2018-09-26T16:52:54.137Z,101754.70
2018-09-26T16:55:23.901Z,101749.22
2018-09-26T16:57:53.827Z,101756.98
2018-09-26T17:00:24.394Z,101760.92
2018-09-26T17:02:54.875Z,101761.67
2018-09-26T17:05:24.671Z,101771.09
2018-09-26T17:07:54.567Z,101773.05
2018-09-26T17:10:24.655Z,101771.03
2018-09-26T17:12:54.853Z,101775.14
2018-09-26T17:15:24.570Z,101777.53
2018-09-26T17:17:54.309Z,101784.76
2018-09-26T17:20:24.115Z,101790.94
2018-09-26T17:22:53.800Z,101791.05
2018-09-26T17:25:24.149Z,101792.28
2018-09-26T17:27:54.065Z,101800.45
2018-09-26T17:30:23.771Z,101802.81
2018-09-26T17:32:54.076Z,101803.92
2018-09-26T17:35:24.243Z,101802.85
2018-09-26T17:37:54.992Z,101804.80
2018-09-26T17:40:24.760Z,101803.64
2018-09-26T17:42:55.375Z,101805.36
2018-09-26T17:45:27.416Z,101800.73
2018-09-26T17:48:03.513Z,101811.71
2018-09-26T17:50:33.212Z,101805.70
2018-09-26T17:53:03.488Z,101807.34
2018-09-26T17:55:33.233Z,101808.98
2018-09-26T17:58:03.026Z,101803.80
2018-09-26T18:00:33.349Z,101797.11
2018-09-26T18:03:03.006Z,101788.63
2018-09-26T18:05:32.964Z,101791.36
2018-09-26T18:08:03.431Z,101797.27
2018-09-26T18:10:33.043Z,101798.41
2018-09-26T18:13:03.467Z,101807.61
2018-09-26T18:15:34.112Z,101811.91
2018-09-26T18:18:03.928Z,101809.97
2018-09-26T18:20:33.723Z,101810.05
2018-09-26T18:23:03.379Z,101809.37
2018-09-26T18:25:34.849Z,101803.80
2018-09-26T18:28:05.592Z,101799.16
2018-09-26T18:30:35.292Z,101801.58
2018-09-26T18:33:05.006Z,101793.30
2018-09-26T18:35:35.265Z,101794.80
2018-09-26T18:38:05.286Z,101786.09
2018-09-26T18:40:36.274Z,101781.00
2018-09-26T18:43:07.548Z,101789.87
2018-09-26T18:45:39.326Z,101813.39
2018-09-26T18:48:10.196Z,101823.06
2018-09-26T18:50:41.241Z,101827.70
2018-09-26T18:53:11.799Z,101828.22
2018-09-26T18:55:41.592Z,101821.50
2018-09-26T18:58:11.983Z,101828.05
2018-09-26T19:00:41.634Z,101828.56
2018-09-26T19:03:12.508Z,101826.45
2018-09-26T19:05:42.079Z,101837.00
2018-09-26T19:08:13.535Z,101829.70
2018-09-26T19:10:43.254Z,101825.61
2018-09-26T19:13:13.001Z,101823.21
2018-09-26T19:15:43.480Z,101819.33
2018-09-26T19:18:15.297Z,101819.78
2018-09-26T19:20:46.577Z,101817.38
2018-09-26T19:23:16.343Z,101816.04
2018-09-26T19:25:46.791Z,101813.78
2018-09-26T19:28:17.328Z,101811.47
2018-09-26T19:30:47.168Z,101818.42
2018-09-26T19:33:17.981Z,101835.18
2018-09-26T19:35:48.714Z,101832.34
2018-09-26T19:38:19.247Z,101842.55
2018-09-26T19:40:48.946Z,101843.37
2018-09-26T19:43:19.967Z,101842.10
2018-09-26T19:45:49.768Z,101833.35
2018-09-26T19:48:19.777Z,101839.27
2018-09-26T19:50:50.030Z,101840.33
2018-09-26T19:53:20.028Z,101835.73
2018-09-26T19:55:50.272Z,101839.54
2018-09-26T19:58:20.986Z,101834.97
2018-09-26T20:00:50.652Z,101833.37
2018-09-26T20:03:20.782Z,101827.92
2018-09-26T20:05:50.967Z,101826.95
2018-09-26T20:08:21.353Z,101830.59
2018-09-26T20:10:51.313Z,101833.78
2018-09-26T20:13:21.431Z,101829.81
2018-09-26T20:15:52.185Z,101829.75
2018-09-26T20:18:23.514Z,101825.12
2018-09-26T20:20:53.780Z,101814.70
2018-09-26T20:23:23.894Z,101817.83
2018-09-26T20:25:54.723Z,101814.56
2018-09-26T20:28:25.464Z,101823.04
2018-09-26T20:30:55.382Z,101825.09
2018-09-26T20:33:26.233Z,101822.11
2018-09-26T20:35:57.548Z,101830.86
2018-09-26T20:38:27.724Z,101827.94
2018-09-26T20:40:57.653Z,101828.05
2018-09-26T20:43:28.934Z,101831.64
2018-09-26T20:45:59.877Z,101837.73
2018-09-26T20:48:30.192Z,101837.09
2018-09-26T20:51:00.501Z,101843.73
2018-09-26T20:53:30.253Z,101831.94
2018-09-26T20:55:59.895Z,101832.14
2018-09-26T20:58:30.211Z,101828.70
2018-09-26T21:01:01.364Z,101837.80
2018-09-26T21:03:33.143Z,101835.38
2018-09-26T21:06:03.488Z,101833.78
2018-09-26T21:08:33.740Z,101842.25
2018-09-26T21:11:04.018Z,101839.74
2018-09-26T21:13:33.764Z,101844.56
2018-09-26T21:16:05.347Z,101845.58
2018-09-26T21:18:35.710Z,101849.28
2018-09-26T21:21:06.236Z,101848.91
2018-09-26T21:23:36.625Z,101842.74
2018-09-26T21:26:06.896Z,101837.91
2018-09-26T21:28:38.780Z,101837.45
2018-09-26T21:31:08.729Z,101838.89
2018-09-26T21:33:40.050Z,101844.69
2018-09-26T21:36:09.778Z,101839.58
2018-09-26T21:38:39.436Z,101837.23
2018-09-26T21:41:10.326Z,101841.75
2018-09-26T21:43:41.278Z,101844.30
2018-09-26T21:46:11.848Z,101849.47
2018-09-26T21:48:43.602Z,101847.79
2018-09-26T21:51:13.489Z,101840.17
2018-09-26T21:53:44.660Z,101841.31
2018-09-26T21:56:14.443Z,101851.41
2018-09-26T21:58:47.460Z,101846.54
2018-09-26T22:01:18.506Z,101851.17
2018-09-26T22:03:49.676Z,101852.97
2018-09-26T22:06:22.256Z,101850.25
2018-09-26T22:08:53.195Z,101853.59
2018-09-26T22:11:23.440Z,101855.73
2018-09-26T22:13:53.673Z,101862.98
2018-09-26T22:16:24.744Z,101864.01
2018-09-26T22:18:55.729Z,101858.16
2018-09-26T22:21:26.395Z,101861.48
2018-09-26T22:23:56.190Z,101862.78
2018-09-26T22:26:26.644Z,101869.30
2018-09-26T22:28:58.276Z,101862.43
2018-09-26T22:31:29.870Z,101865.49
2018-09-26T22:34:03.633Z,101866.44
2018-09-26T22:36:33.800Z,101868.25
2018-09-26T22:39:04.800Z,101882.44
2018-09-26T22:41:35.062Z,101867.66
2018-09-26T22:44:05.719Z,101870.48
2018-09-26T22:46:35.881Z,101874.50
2018-09-26T22:49:06.024Z,101865.10
2018-09-26T22:51:36.196Z,101860.45
2018-09-26T22:54:06.035Z,101855.27
2018-09-26T22:56:39.481Z,101855.89
2018-09-26T22:59:09.623Z,101853.53
2018-09-26T23:01:40.367Z,101856.90
2018-09-26T23:04:10.982Z,101849.55
2018-09-26T23:06:41.299Z,101851.19
2018-09-26T23:09:13.321Z,101843.44
2018-09-26T23:11:43.883Z,101842.77
2018-09-26T23:14:14.823Z,101844.98
2018-09-26T23:16:45.402Z,101839.95
2018-09-26T23:19:17.430Z,101838.77
2018-09-26T23:21:47.295Z,101840.02
2018-09-26T23:24:17.115Z,101838.67
2018-09-26T23:26:46.911Z,101829.47
2018-09-26T23:29:16.663Z,101829.66
2018-09-26T23:31:47.506Z,101821.30
2018-09-26T23:34:17.296Z,101813.63
2018-09-26T23:36:48.772Z,101814.25
2018-09-26T23:39:20.809Z,101809.36
2018-09-26T23:41:51.911Z,101810.89
2018-09-26T23:44:21.672Z,101806.17
2018-09-26T23:46:51.498Z,101807.77
2018-09-26T23:49:21.311Z,101802.42
2018-09-26T23:51:53.732Z,101807.70
2018-09-26T23:54:24.311Z,101803.70
2018-09-26T23:56:55.245Z,101809.55
2018-09-26T23:59:25.056Z,101807.64
